createdAt,value
2019-03-23T00:00:42.721Z,0.00
2019-03-23T00:01:42.700Z,0.00
2019-03-23T00:02:42.682Z,0.00
2019-03-23T00:03:42.659Z,0.00
2019-03-23T00:04:42.635Z,0.00
2019-03-23T00:05:42.610Z,0.00
2019-03-23T00:06:42.588Z,0.00
2019-03-23T00:07:42.569Z,0.00
2019-03-23T00:08:42.551Z,0.00
2019-03-23T00:09:42.525Z,0.00
2019-03-23T00:10:42.502Z,0.00
2019-03-23T00:11:42.491Z,0.00
2019-03-23T00:12:42.457Z,0.00
2019-03-23T00:13:42.441Z,0.00
2019-03-23T00:14:42.418Z,0.00
2019-03-23T00:15:42.395Z,0.00
2019-03-23T00:16:42.376Z,0.00
2019-03-23T00:17:42.352Z,0.00
2019-03-23T00:18:42.324Z,0.00
2019-03-23T00:19:42.309Z,0.00
2019-03-23T00:20:42.283Z,0.00
2019-03-23T00:21:42.261Z,0.00
2019-03-23T00:22:42.240Z,0.00
2019-03-23T00:23:42.221Z,0.00
2019-03-23T00:24:42.195Z,0.00
2019-03-23T00:25:42.168Z,0.00
2019-03-23T00:26:42.148Z,0.00
2019-03-23T00:27:42.135Z,0.00
2019-03-23T00:28:42.108Z,0.00
2019-03-23T00:29:42.082Z,0.00
2019-03-23T00:30:42.063Z,0.00
2019-03-23T00:31:42.039Z,0.00
2019-03-23T00:32:42.016Z,0.00
2019-03-23T00:33:41.992Z,0.00
2019-03-23T00:34:41.975Z,0.00
2019-03-23T00:35:41.948Z,0.00
2019-03-23T00:36:42.059Z,0.00
2019-03-23T00:37:41.904Z,0.00
2019-03-23T00:38:41.889Z,0.00
2019-03-23T00:39:41.860Z,0.00
2019-03-23T00:40:41.843Z,0.00
2019-03-23T00:41:41.826Z,0.00
2019-03-23T00:42:41.793Z,0.00
2019-03-23T00:43:41.779Z,0.00
2019-03-23T00:44:41.755Z,0.00
2019-03-23T00:45:41.730Z,0.00
2019-03-23T00:46:41.702Z,0.00
2019-03-23T00:47:41.682Z,0.00
2019-03-23T00:48:41.661Z,0.00
2019-03-23T00:49:41.641Z,0.00
2019-03-23T00:50:41.621Z,0.00
2019-03-23T00:51:41.603Z,0.00
2019-03-23T00:52:41.576Z,0.00
2019-03-23T00:53:41.550Z,0.00
2019-03-23T00:54:41.531Z,0.00
2019-03-23T00:55:41.518Z,0.00
2019-03-23T00:56:41.489Z,0.00
2019-03-23T00:57:41.463Z,0.00
2019-03-23T00:58:41.444Z,0.00
2019-03-23T00:59:41.418Z,0.00
2019-03-23T01:00:41.401Z,0.00
2019-03-23T01:01:41.384Z,0.00
2019-03-23T01:02:42.064Z,0.00
2019-03-23T01:03:41.329Z,0.00
2019-03-23T01:04:41.315Z,0.00
2019-03-23T01:05:41.291Z,0.00
2019-03-23T01:06:51.595Z,0.00
2019-03-23T01:07:41.279Z,0.00
2019-03-23T01:08:41.219Z,0.00
2019-03-23T01:09:41.197Z,0.00
2019-03-23T01:10:41.182Z,0.00
2019-03-23T01:11:41.159Z,0.00
2019-03-23T01:12:41.133Z,0.00
2019-03-23T01:13:41.117Z,0.00
2019-03-23T01:14:41.095Z,0.00
2019-03-23T01:15:41.068Z,0.00
2019-03-23T01:16:41.045Z,0.00
2019-03-23T01:17:41.025Z,0.00
2019-03-23T01:18:40.999Z,0.00
2019-03-23T01:19:40.983Z,0.00
2019-03-23T01:20:49.259Z,0.00
2019-03-23T01:21:40.936Z,0.00
2019-03-23T01:22:40.963Z,0.00
2019-03-23T01:23:40.895Z,0.00
2019-03-23T01:24:40.873Z,0.00
2019-03-23T01:25:40.852Z,0.00
2019-03-23T01:26:40.827Z,0.00
2019-03-23T01:27:40.799Z,0.00
2019-03-23T01:28:40.785Z,0.00
2019-03-23T01:29:40.759Z,0.00
2019-03-23T01:30:40.737Z,0.00
2019-03-23T01:31:40.716Z,0.00
2019-03-23T01:32:40.691Z,0.00
2019-03-23T01:33:40.679Z,0.00
2019-03-23T01:34:40.647Z,0.00
2019-03-23T01:35:40.627Z,0.00
2019-03-23T01:36:40.605Z,0.00
2019-03-23T01:37:40.587Z,0.00
2019-03-23T01:38:40.562Z,0.00
2019-03-23T01:39:40.540Z,0.00
2019-03-23T01:40:40.522Z,0.00
2019-03-23T01:41:40.499Z,0.00
2019-03-23T01:42:40.475Z,0.00
2019-03-23T01:43:40.453Z,0.00
2019-03-23T01:44:40.429Z,0.00
2019-03-23T01:45:40.411Z,0.00
2019-03-23T01:46:40.390Z,0.00
2019-03-23T01:47:40.362Z,0.00
2019-03-23T01:48:40.345Z,0.00
2019-03-23T01:49:40.323Z,0.00
2019-03-23T01:50:40.301Z,0.00
2019-03-23T01:51:40.281Z,0.00
2019-03-23T01:52:40.257Z,0.00
2019-03-23T01:53:40.233Z,0.00
2019-03-23T01:54:40.209Z,0.00
2019-03-23T01:55:40.193Z,0.00
2019-03-23T01:56:40.167Z,0.00
2019-03-23T01:57:40.146Z,0.00
2019-03-23T01:58:40.122Z,0.00
2019-03-23T01:59:40.107Z,0.00
2019-03-23T02:00:40.099Z,0.00
2019-03-23T02:01:40.056Z,0.00
2019-03-23T02:02:40.032Z,0.00
2019-03-23T02:03:40.013Z,0.00
2019-03-23T02:04:39.988Z,0.00
2019-03-23T02:05:39.969Z,0.00
2019-03-23T02:06:39.948Z,0.00
2019-03-23T02:07:39.988Z,0.00
2019-03-23T02:08:39.903Z,0.00
2019-03-23T02:09:39.884Z,0.00
2019-03-23T02:10:41.846Z,0.00
2019-03-23T02:11:39.836Z,0.00
2019-03-23T02:12:39.816Z,0.00
2019-03-23T02:13:39.794Z,0.00
2019-03-23T02:14:39.770Z,0.00
2019-03-23T02:15:39.749Z,0.00
2019-03-23T02:16:39.729Z,0.00
2019-03-23T02:17:39.706Z,0.00
2019-03-23T02:18:39.680Z,0.00
2019-03-23T02:19:39.659Z,0.00
2019-03-23T02:20:39.634Z,0.00
2019-03-23T02:21:39.613Z,0.00
2019-03-23T02:22:39.590Z,0.00
2019-03-23T02:23:39.573Z,0.00
2019-03-23T02:24:39.548Z,0.00
2019-03-23T02:25:39.530Z,0.00
2019-03-23T02:26:39.506Z,0.00
2019-03-23T02:27:39.485Z,0.00
2019-03-23T02:28:39.459Z,0.00
2019-03-23T02:29:39.436Z,0.00
2019-03-23T02:30:39.417Z,0.00
2019-03-23T02:31:39.397Z,0.00
2019-03-23T02:32:39.377Z,0.00
2019-03-23T02:33:39.358Z,0.00
2019-03-23T02:34:39.330Z,0.00
2019-03-23T02:35:39.309Z,0.00
2019-03-23T02:36:39.289Z,0.00
2019-03-23T02:37:39.263Z,0.00
2019-03-23T02:38:39.241Z,0.00
2019-03-23T02:39:39.218Z,0.00
2019-03-23T02:40:39.203Z,0.00
2019-03-23T02:41:39.179Z,0.00
2019-03-23T02:42:39.155Z,0.00
2019-03-23T02:43:39.129Z,0.00
2019-03-23T02:44:39.111Z,0.00
2019-03-23T02:45:39.089Z,0.00
2019-03-23T02:46:39.063Z,0.00
2019-03-23T02:47:39.042Z,0.00
2019-03-23T02:48:39.025Z,0.00
2019-03-23T02:49:39.003Z,0.00
2019-03-23T02:50:38.972Z,0.00
2019-03-23T02:51:39.813Z,0.00
2019-03-23T02:52:38.936Z,0.00
2019-03-23T02:53:38.916Z,0.00
2019-03-23T02:54:38.890Z,0.00
2019-03-23T02:55:38.862Z,0.00
2019-03-23T02:56:38.841Z,0.00
2019-03-23T02:57:38.821Z,0.00
2019-03-23T02:58:38.804Z,0.00
2019-03-23T02:59:38.774Z,0.00
2019-03-23T03:00:38.761Z,0.00
2019-03-23T03:01:38.735Z,0.00
2019-03-23T03:02:38.712Z,0.00
2019-03-23T03:03:38.699Z,0.00
2019-03-23T03:04:38.663Z,0.00
2019-03-23T03:05:38.651Z,0.00
2019-03-23T03:06:38.620Z,0.00
2019-03-23T03:07:42.673Z,0.00
2019-03-23T03:08:38.580Z,0.00
2019-03-23T03:09:38.553Z,0.00
2019-03-23T03:10:38.546Z,0.00
2019-03-23T03:11:38.534Z,0.00
2019-03-23T03:12:38.497Z,0.00
2019-03-23T03:13:38.468Z,0.00
2019-03-23T03:14:38.449Z,0.00
2019-03-23T03:15:38.427Z,0.00
2019-03-23T03:16:38.400Z,0.00
2019-03-23T03:17:38.376Z,0.00
2019-03-23T03:18:38.358Z,0.00
2019-03-23T03:19:38.351Z,0.00
2019-03-23T03:20:38.323Z,0.00
2019-03-23T03:21:38.293Z,0.00
2019-03-23T03:22:38.266Z,0.00
2019-03-23T03:23:38.243Z,0.00
2019-03-23T03:24:38.223Z,0.00
2019-03-23T03:25:38.203Z,0.00
2019-03-23T03:26:38.175Z,0.00
2019-03-23T03:27:38.175Z,0.00
2019-03-23T03:28:38.135Z,0.00
2019-03-23T03:29:38.108Z,0.00
2019-03-23T03:30:38.211Z,0.00
2019-03-23T03:31:38.070Z,0.00
2019-03-23T03:32:38.067Z,0.00
2019-03-23T03:33:38.024Z,0.00
2019-03-23T03:34:38.005Z,0.00
2019-03-23T03:35:37.978Z,0.00
2019-03-23T03:36:37.961Z,0.00
2019-03-23T03:37:37.940Z,0.00
2019-03-23T03:38:37.917Z,0.00
2019-03-23T03:39:37.896Z,0.00
2019-03-23T03:40:37.870Z,0.00
2019-03-23T03:41:37.845Z,0.00
2019-03-23T03:42:37.846Z,0.00
2019-03-23T03:43:37.805Z,0.00
2019-03-23T03:44:37.784Z,0.00
2019-03-23T03:45:37.767Z,0.00
2019-03-23T03:46:37.738Z,0.00
2019-03-23T03:47:41.034Z,0.00
2019-03-23T03:48:37.694Z,0.00
2019-03-23T03:49:37.678Z,0.00
2019-03-23T03:50:37.648Z,0.00
2019-03-23T03:51:37.624Z,0.00
2019-03-23T03:52:37.604Z,0.00
2019-03-23T03:53:37.590Z,0.00
2019-03-23T03:54:37.561Z,0.00
2019-03-23T03:55:37.540Z,0.00
2019-03-23T03:56:37.524Z,0.00
2019-03-23T03:57:37.507Z,0.00
2019-03-23T03:58:37.476Z,0.00
2019-03-23T03:59:37.448Z,0.00
2019-03-23T04:00:37.430Z,0.00
2019-03-23T04:01:37.411Z,0.00
2019-03-23T04:02:37.388Z,0.00
2019-03-23T04:03:37.367Z,0.00
2019-03-23T04:04:37.345Z,0.00
2019-03-23T04:05:37.323Z,0.00
2019-03-23T04:06:37.302Z,0.00
2019-03-23T04:07:37.278Z,0.00
2019-03-23T04:08:37.256Z,0.00
2019-03-23T04:09:40.268Z,0.00
2019-03-23T04:10:37.207Z,0.00
2019-03-23T04:11:37.186Z,0.00
2019-03-23T04:12:37.167Z,0.00
2019-03-23T04:13:37.144Z,0.00
2019-03-23T04:14:37.131Z,0.00
2019-03-23T04:15:37.118Z,0.00
2019-03-23T04:16:37.084Z,0.00
2019-03-23T04:17:37.058Z,0.00
2019-03-23T04:18:37.036Z,0.00
2019-03-23T04:19:37.015Z,0.00
2019-03-23T04:20:36.990Z,0.00
2019-03-23T04:21:36.974Z,0.00
2019-03-23T04:22:36.950Z,0.00
2019-03-23T04:23:36.925Z,0.00
2019-03-23T04:24:36.906Z,0.00
2019-03-23T04:25:36.882Z,0.00
2019-03-23T04:26:39.181Z,0.00
2019-03-23T04:27:36.840Z,0.00
2019-03-23T04:28:36.817Z,0.00
2019-03-23T04:29:36.796Z,0.00
2019-03-23T04:30:36.773Z,4.00
2019-03-23T04:31:36.757Z,0.00
2019-03-23T04:32:36.738Z,0.00
2019-03-23T04:33:36.710Z,0.00
2019-03-23T04:34:36.677Z,4.00
2019-03-23T04:35:36.664Z,4.00
2019-03-23T04:36:36.652Z,0.00
2019-03-23T04:37:36.623Z,4.00
2019-03-23T04:38:36.603Z,4.00
2019-03-23T04:39:36.579Z,4.00
2019-03-23T04:40:36.559Z,4.00
2019-03-23T04:41:36.539Z,8.00
2019-03-23T04:42:36.515Z,8.00
2019-03-23T04:43:36.488Z,8.00
2019-03-23T04:44:36.470Z,12.00
2019-03-23T04:45:36.446Z,16.00
2019-03-23T04:46:36.421Z,16.00
2019-03-23T04:47:36.400Z,16.00
2019-03-23T04:48:36.381Z,24.00
2019-03-23T04:49:36.358Z,24.00
2019-03-23T04:50:36.332Z,28.00
2019-03-23T04:51:36.309Z,36.00
2019-03-23T04:52:36.290Z,40.00
2019-03-23T04:53:36.273Z,48.00
2019-03-23T04:54:36.247Z,52.00
2019-03-23T04:55:36.231Z,60.00
2019-03-23T04:56:36.203Z,64.00
2019-03-23T04:57:36.185Z,76.00
2019-03-23T04:58:36.158Z,84.00
2019-03-23T04:59:36.136Z,92.00
2019-03-23T05:00:36.119Z,100.00
2019-03-23T05:01:36.093Z,112.00
2019-03-23T05:02:36.074Z,124.00
2019-03-23T05:03:36.047Z,136.00
2019-03-23T05:04:36.029Z,148.00
2019-03-23T05:05:36.003Z,160.00
2019-03-23T05:06:35.983Z,180.00
2019-03-23T05:07:35.972Z,192.00
2019-03-23T05:08:35.943Z,200.00
2019-03-23T05:09:35.916Z,220.00
2019-03-23T05:10:35.901Z,232.00
2019-03-23T05:11:35.873Z,252.00
2019-03-23T05:12:35.849Z,264.00
2019-03-23T05:13:35.828Z,284.00
2019-03-23T05:14:35.810Z,304.00
2019-03-23T05:15:35.787Z,328.00
2019-03-23T05:16:35.768Z,348.00
2019-03-23T05:17:35.742Z,372.00
2019-03-23T05:18:35.723Z,392.00
2019-03-23T05:19:35.700Z,424.00
2019-03-23T05:20:35.674Z,452.00
2019-03-23T05:21:35.652Z,484.00
2019-03-23T05:22:35.644Z,508.00
2019-03-23T05:23:35.608Z,540.00
2019-03-23T05:24:35.588Z,568.00
2019-03-23T05:25:35.566Z,592.00
2019-03-23T05:26:35.548Z,628.00
2019-03-23T05:27:35.523Z,652.00
2019-03-23T05:28:35.504Z,680.00
2019-03-23T05:29:35.476Z,720.00
2019-03-23T05:30:35.459Z,740.00
2019-03-23T05:31:35.430Z,764.00
2019-03-23T05:32:35.411Z,816.00
2019-03-23T05:33:35.392Z,864.00
2019-03-23T05:34:35.366Z,864.00
2019-03-23T05:35:35.344Z,880.00
2019-03-23T05:36:35.320Z,916.00
2019-03-23T05:37:35.304Z,964.00
2019-03-23T05:38:43.953Z,996.00
2019-03-23T05:39:35.258Z,1004.00
2019-03-23T05:40:35.232Z,1048.00
2019-03-23T05:41:35.213Z,1068.00
2019-03-23T05:42:35.190Z,1100.00
2019-03-23T05:43:35.165Z,1120.00
2019-03-23T05:44:35.150Z,1180.00
2019-03-23T05:45:35.125Z,1192.00
2019-03-23T05:46:35.108Z,1256.00
2019-03-23T05:47:35.082Z,1256.00
2019-03-23T05:48:35.059Z,1320.00
2019-03-23T05:49:35.034Z,1388.00
2019-03-23T05:50:35.042Z,1352.00
2019-03-23T05:51:34.994Z,1456.00
2019-03-23T05:52:34.979Z,1408.00
2019-03-23T05:53:34.955Z,1480.00
2019-03-23T05:54:34.928Z,1544.00
2019-03-23T05:55:34.914Z,1600.00
2019-03-23T05:56:34.885Z,1560.00
2019-03-23T05:57:34.870Z,1748.00
2019-03-23T05:58:34.846Z,1696.00
2019-03-23T05:59:34.816Z,1712.00
2019-03-23T06:00:34.793Z,1756.00
2019-03-23T06:01:34.782Z,1868.00
2019-03-23T06:02:34.751Z,1824.00
2019-03-23T06:03:34.727Z,1924.00
2019-03-23T06:04:34.708Z,1996.00
2019-03-23T06:05:34.685Z,2032.00
2019-03-23T06:06:34.660Z,1992.00
2019-03-23T06:07:34.645Z,2084.00
2019-03-23T06:08:34.620Z,2156.00
2019-03-23T06:09:34.593Z,2184.00
2019-03-23T06:10:34.572Z,2288.00
2019-03-23T06:11:34.559Z,2216.00
2019-03-23T06:12:34.531Z,2440.00
2019-03-23T06:13:34.508Z,2288.00
2019-03-23T06:14:34.495Z,2684.00
2019-03-23T06:15:34.464Z,2356.00
2019-03-23T06:16:34.443Z,2604.00
2019-03-23T06:17:34.428Z,2632.00
2019-03-23T06:18:34.399Z,2744.00
2019-03-23T06:19:34.378Z,2884.00
2019-03-23T06:20:34.353Z,3072.00
2019-03-23T06:21:34.337Z,3108.00
2019-03-23T06:22:34.309Z,3128.00
2019-03-23T06:23:34.290Z,3240.00
2019-03-23T06:24:34.267Z,3412.00
2019-03-23T06:25:34.252Z,3540.00
2019-03-23T06:26:34.223Z,3512.00
2019-03-23T06:27:34.205Z,3608.00
2019-03-23T06:28:34.183Z,3656.00
2019-03-23T06:29:34.165Z,3796.00
2019-03-23T06:30:34.141Z,3852.00
2019-03-23T06:31:34.115Z,3772.00
2019-03-23T06:32:34.101Z,3788.00
2019-03-23T06:33:34.073Z,3836.00
2019-03-23T06:34:34.056Z,3976.00
2019-03-23T06:35:34.031Z,4180.00
2019-03-23T06:36:34.004Z,4156.00
2019-03-23T06:37:33.985Z,3884.00
2019-03-23T06:38:33.963Z,4012.00
2019-03-23T06:39:33.942Z,4008.00
2019-03-23T06:40:33.921Z,4236.00
2019-03-23T06:41:33.905Z,4428.00
2019-03-23T06:42:33.878Z,4480.00
2019-03-23T06:43:33.862Z,4564.00
2019-03-23T06:44:33.833Z,4600.00
2019-03-23T06:45:33.814Z,4696.00
2019-03-23T06:46:33.789Z,4760.00
2019-03-23T06:47:33.770Z,4928.00
2019-03-23T06:48:33.745Z,4812.00
2019-03-23T06:49:33.728Z,4920.00
2019-03-23T06:50:33.709Z,4836.00
2019-03-23T06:51:33.687Z,4652.00
2019-03-23T06:52:33.661Z,4896.00
2019-03-23T06:53:33.642Z,5240.00
2019-03-23T06:54:33.615Z,5256.00
2019-03-23T06:55:33.600Z,6076.00
2019-03-23T06:56:33.579Z,6076.00
2019-03-23T06:57:33.556Z,6092.00
2019-03-23T06:58:33.536Z,6620.00
2019-03-23T06:59:33.512Z,5956.00
2019-03-23T07:00:33.490Z,6528.00
2019-03-23T07:01:33.474Z,6272.00
2019-03-23T07:02:33.449Z,6116.00
2019-03-23T07:03:33.425Z,6416.00
2019-03-23T07:04:33.414Z,6152.00
2019-03-23T07:05:33.390Z,7048.00
2019-03-23T07:06:33.372Z,6568.00
2019-03-23T07:07:33.344Z,7580.00
2019-03-23T07:08:33.324Z,9140.00
2019-03-23T07:09:33.306Z,7468.00
2019-03-23T07:10:33.278Z,7292.00
2019-03-23T07:11:33.264Z,9032.00
2019-03-23T07:12:33.241Z,8108.00
2019-03-23T07:13:33.219Z,8200.00
2019-03-23T07:14:33.202Z,9728.00
2019-03-23T07:15:33.184Z,9580.00
2019-03-23T07:16:33.157Z,10320.00
2019-03-23T07:17:33.139Z,9484.00
2019-03-23T07:18:33.116Z,8740.00
2019-03-23T07:19:33.094Z,9436.00
2019-03-23T07:20:33.078Z,10028.00
2019-03-23T07:21:33.057Z,10492.00
2019-03-23T07:22:33.039Z,12640.00
2019-03-23T07:23:33.023Z,14024.00
2019-03-23T07:24:32.994Z,13572.00
2019-03-23T07:25:32.977Z,13300.00
2019-03-23T07:26:32.954Z,17920.00
2019-03-23T07:27:32.941Z,18912.00
2019-03-23T07:28:32.923Z,22528.00
2019-03-23T07:29:32.901Z,26400.00
2019-03-23T07:30:32.883Z,11208.00
2019-03-23T07:31:32.907Z,22304.00
2019-03-23T07:32:32.841Z,30784.00
2019-03-23T07:33:32.819Z,30688.00
2019-03-23T07:34:32.796Z,33760.00
2019-03-23T07:35:32.779Z,33280.00
2019-03-23T07:36:32.762Z,33440.00
2019-03-23T07:37:32.744Z,33344.00
2019-03-23T07:38:32.720Z,32544.00
2019-03-23T07:39:32.707Z,34016.00
2019-03-23T07:40:32.689Z,34400.00
2019-03-23T07:41:32.671Z,33472.00
2019-03-23T07:42:32.652Z,34432.00
2019-03-23T07:43:32.636Z,36384.00
2019-03-23T07:44:32.618Z,36000.00
2019-03-23T07:45:32.600Z,37088.00
2019-03-23T07:46:32.582Z,35232.00
2019-03-23T07:47:32.563Z,36384.00
2019-03-23T07:48:32.549Z,37664.00
2019-03-23T07:49:32.537Z,37504.00
2019-03-23T07:50:32.519Z,36896.00
2019-03-23T07:51:32.504Z,37184.00
2019-03-23T07:52:32.488Z,36480.00
2019-03-23T07:53:32.475Z,40352.00
2019-03-23T07:54:32.459Z,40800.00
2019-03-23T07:55:32.441Z,39552.00
2019-03-23T07:56:32.433Z,41504.00
2019-03-23T07:57:32.414Z,42176.00
2019-03-23T07:58:32.399Z,41856.00
2019-03-23T07:59:32.384Z,40544.00
2019-03-23T08:00:32.371Z,39648.00
2019-03-23T08:01:32.356Z,38976.00
2019-03-23T08:02:32.347Z,37728.00
2019-03-23T08:03:32.334Z,36352.00
2019-03-23T08:04:32.321Z,35040.00
2019-03-23T08:05:32.318Z,36640.00
2019-03-23T08:06:32.297Z,32416.00
2019-03-23T08:07:32.282Z,21248.00
2019-03-23T08:08:32.273Z,15136.00
2019-03-23T08:09:37.679Z,14272.00
2019-03-23T08:10:32.246Z,13760.00
2019-03-23T08:11:32.237Z,13780.00
2019-03-23T08:12:32.228Z,13848.00
2019-03-23T08:13:32.340Z,13904.00
2019-03-23T08:14:32.206Z,13812.00
2019-03-23T08:15:32.192Z,13872.00
2019-03-23T08:16:32.182Z,14208.00
2019-03-23T08:17:32.174Z,14416.00
2019-03-23T08:18:32.167Z,14388.00
2019-03-23T08:19:32.150Z,14252.00
2019-03-23T08:20:32.144Z,14320.00
2019-03-23T08:21:32.136Z,14500.00
2019-03-23T08:22:32.125Z,14380.00
2019-03-23T08:23:32.111Z,14464.00
2019-03-23T08:24:32.111Z,14512.00
2019-03-23T08:25:32.093Z,14724.00
2019-03-23T08:26:32.081Z,14980.00
2019-03-23T08:27:32.080Z,14796.00
2019-03-23T08:28:32.517Z,15016.00
2019-03-23T08:29:32.055Z,15068.00
2019-03-23T08:30:32.049Z,15192.00
2019-03-23T08:31:32.035Z,15456.00
2019-03-23T08:32:32.029Z,15424.00
2019-03-23T08:33:32.020Z,15456.00
2019-03-23T08:34:32.010Z,15456.00
2019-03-23T08:35:32.003Z,15648.00
2019-03-23T08:36:32.000Z,15680.00
2019-03-23T08:37:31.986Z,15808.00
2019-03-23T08:38:31.980Z,15744.00
2019-03-23T08:39:31.973Z,15712.00
2019-03-23T08:40:31.970Z,15872.00
2019-03-23T08:41:31.953Z,16256.00
2019-03-23T08:42:31.952Z,16192.00
2019-03-23T08:43:31.949Z,15648.00
2019-03-23T08:44:31.935Z,15776.00
2019-03-23T08:45:31.927Z,16192.00
2019-03-23T08:46:31.916Z,16416.00
2019-03-23T08:47:31.918Z,16288.00
2019-03-23T08:48:31.917Z,16576.00
2019-03-23T08:49:31.901Z,16480.00
2019-03-23T08:50:31.893Z,16768.00
2019-03-23T08:51:31.887Z,16512.00
2019-03-23T08:52:31.876Z,16800.00
2019-03-23T08:53:31.874Z,16800.00
2019-03-23T08:54:31.868Z,16832.00
2019-03-23T08:55:31.859Z,16544.00
2019-03-23T08:56:31.851Z,16608.00
2019-03-23T08:57:31.846Z,16832.00
2019-03-23T08:58:31.837Z,17088.00
2019-03-23T08:59:31.833Z,17024.00
2019-03-23T09:00:31.827Z,16864.00
2019-03-23T09:01:31.821Z,17120.00
2019-03-23T09:02:31.813Z,17280.00
2019-03-23T09:03:31.804Z,17344.00
2019-03-23T09:04:31.800Z,17472.00
2019-03-23T09:05:31.794Z,17152.00
2019-03-23T09:06:31.791Z,17024.00
2019-03-23T09:07:31.783Z,17312.00
2019-03-23T09:08:31.778Z,17472.00
2019-03-23T09:09:31.773Z,17312.00
2019-03-23T09:10:31.774Z,17376.00
2019-03-23T09:11:31.761Z,17408.00
2019-03-23T09:12:31.761Z,17568.00
2019-03-23T09:13:40.183Z,17632.00
2019-03-23T09:14:31.745Z,17824.00
2019-03-23T09:15:31.739Z,17856.00
2019-03-23T09:16:31.734Z,17920.00
2019-03-23T09:17:31.734Z,18112.00
2019-03-23T09:18:31.726Z,17920.00
2019-03-23T09:19:31.726Z,18016.00
2019-03-23T09:20:31.715Z,17984.00
2019-03-23T09:21:31.719Z,18048.00
2019-03-23T09:22:31.705Z,18016.00
2019-03-23T09:23:31.709Z,18048.00
2019-03-23T09:24:31.700Z,18016.00
2019-03-23T09:25:31.699Z,18112.00
2019-03-23T09:26:31.691Z,18112.00
2019-03-23T09:27:31.682Z,18144.00
2019-03-23T09:28:31.678Z,18176.00
2019-03-23T09:29:31.678Z,18464.00
2019-03-23T09:30:31.670Z,18752.00
2019-03-23T09:31:31.668Z,18912.00
2019-03-23T09:32:31.661Z,18880.00
2019-03-23T09:33:31.658Z,18848.00
2019-03-23T09:34:31.651Z,19040.00
2019-03-23T09:35:31.646Z,19360.00
2019-03-23T09:36:31.647Z,19424.00
2019-03-23T09:37:31.641Z,19488.00
2019-03-23T09:38:31.638Z,19392.00
2019-03-23T09:39:31.635Z,19232.00
2019-03-23T09:40:31.632Z,19392.00
2019-03-23T09:41:31.628Z,19392.00
2019-03-23T09:42:31.621Z,19264.00
2019-03-23T09:43:31.621Z,19488.00
2019-03-23T09:44:31.625Z,19456.00
2019-03-23T09:45:31.620Z,19712.00
2019-03-23T09:46:31.607Z,19744.00
2019-03-23T09:47:31.606Z,19616.00
2019-03-23T09:48:31.604Z,19808.00
2019-03-23T09:49:31.601Z,19776.00
2019-03-23T09:50:31.594Z,19584.00
2019-03-23T09:51:33.009Z,19712.00
2019-03-23T09:52:31.590Z,19584.00
2019-03-23T09:53:31.588Z,19488.00
2019-03-23T09:54:31.596Z,19776.00
2019-03-23T09:55:31.580Z,19712.00
2019-03-23T09:56:31.578Z,19904.00
2019-03-23T09:57:31.576Z,20256.00
2019-03-23T09:58:31.577Z,20608.00
2019-03-23T09:59:31.574Z,20704.00
2019-03-23T10:00:31.567Z,20928.00
2019-03-23T10:01:31.565Z,21344.00
2019-03-23T10:02:31.559Z,21888.00
2019-03-23T10:03:31.560Z,27424.00
2019-03-23T10:04:31.562Z,42752.00
2019-03-23T10:05:31.560Z,52640.00
2019-03-23T10:06:31.554Z,55328.00
2019-03-23T10:07:31.550Z,57184.00
2019-03-23T10:08:31.546Z,54400.00
2019-03-23T10:09:31.551Z,53920.00
2019-03-23T10:10:31.541Z,57056.00
2019-03-23T10:11:31.538Z,62752.00
2019-03-23T10:12:31.550Z,65376.00
2019-03-23T10:13:31.536Z,65056.00
2019-03-23T10:14:31.537Z,65120.00
2019-03-23T10:15:31.533Z,66304.00
2019-03-23T10:16:31.540Z,67040.00
2019-03-23T10:17:31.543Z,67936.00
2019-03-23T10:18:31.526Z,69920.00
2019-03-23T10:19:31.522Z,70944.00
2019-03-23T10:20:31.526Z,66560.00
2019-03-23T10:21:31.522Z,63584.00
2019-03-23T10:22:31.531Z,66176.00
2019-03-23T10:23:31.519Z,68928.00
2019-03-23T10:24:31.513Z,72256.00
2019-03-23T10:25:31.511Z,71104.00
2019-03-23T10:26:31.512Z,69280.00
2019-03-23T10:27:31.511Z,68480.00
2019-03-23T10:28:31.512Z,68928.00
2019-03-23T10:29:31.507Z,67616.00
2019-03-23T10:30:31.505Z,70272.00
2019-03-23T10:31:31.502Z,64384.00
2019-03-23T10:32:31.508Z,13604.00
2019-03-23T10:33:31.499Z,70304.00
2019-03-23T10:34:31.495Z,71520.00
2019-03-23T10:35:31.493Z,60000.00
2019-03-23T10:36:31.493Z,66400.00
2019-03-23T10:37:31.494Z,67648.00
2019-03-23T10:38:31.492Z,67616.00
2019-03-23T10:39:31.491Z,55232.00
2019-03-23T10:40:32.738Z,56384.00
2019-03-23T10:41:31.484Z,64576.00
2019-03-23T10:42:31.481Z,75008.00
2019-03-23T10:43:31.484Z,71264.00
2019-03-23T10:44:31.486Z,67456.00
2019-03-23T10:45:31.479Z,64160.00
2019-03-23T10:46:31.474Z,70528.00
2019-03-23T10:47:31.555Z,77440.00
2019-03-23T10:48:31.472Z,79360.00
2019-03-23T10:49:31.466Z,77568.00
2019-03-23T10:50:31.465Z,73792.00
2019-03-23T10:51:31.461Z,70624.00
2019-03-23T10:52:31.460Z,70688.00
2019-03-23T10:53:31.464Z,72960.00
2019-03-23T10:54:31.460Z,75904.00
2019-03-23T10:55:31.460Z,78208.00
2019-03-23T10:56:31.455Z,76352.00
2019-03-23T10:57:31.452Z,75712.00
2019-03-23T10:58:31.454Z,73920.00
2019-03-23T10:59:31.451Z,72896.00
2019-03-23T11:00:31.449Z,73472.00
2019-03-23T11:01:31.448Z,73536.00
2019-03-23T11:02:31.448Z,73280.00
2019-03-23T11:03:31.448Z,72992.00
2019-03-23T11:04:31.444Z,76032.00
2019-03-23T11:05:31.444Z,75104.00
2019-03-23T11:06:31.438Z,72960.00
2019-03-23T11:07:31.437Z,76288.00
2019-03-23T11:08:31.442Z,80928.00
2019-03-23T11:09:31.433Z,76448.00
2019-03-23T11:10:31.437Z,72512.00
2019-03-23T11:11:31.431Z,67744.00
2019-03-23T11:12:31.431Z,72192.00
2019-03-23T11:13:31.431Z,76288.00
2019-03-23T11:14:31.426Z,81216.00
2019-03-23T11:15:31.427Z,77344.00
2019-03-23T11:16:31.434Z,72352.00
2019-03-23T11:17:31.422Z,70048.00
2019-03-23T11:18:31.424Z,74432.00
2019-03-23T11:19:31.417Z,73248.00
2019-03-23T11:20:31.424Z,71424.00
2019-03-23T11:21:31.415Z,73184.00
2019-03-23T11:22:31.421Z,71360.00
2019-03-23T11:23:31.414Z,68064.00
2019-03-23T11:24:31.413Z,65440.00
2019-03-23T11:25:31.413Z,66880.00
2019-03-23T11:26:31.409Z,70592.00
2019-03-23T11:27:31.409Z,71200.00
2019-03-23T11:28:31.434Z,69248.00
2019-03-23T11:29:31.409Z,66464.00
2019-03-23T11:30:31.416Z,68256.00
2019-03-23T11:31:31.409Z,67392.00
2019-03-23T11:32:31.409Z,70496.00
2019-03-23T11:33:31.407Z,69600.00
2019-03-23T11:34:31.400Z,68448.00
2019-03-23T11:35:31.404Z,67616.00
2019-03-23T11:36:31.403Z,68864.00
2019-03-23T11:37:31.619Z,69760.00
2019-03-23T11:38:31.397Z,72224.00
2019-03-23T11:39:31.395Z,72256.00
2019-03-23T11:40:31.402Z,71808.00
2019-03-23T11:41:31.390Z,66976.00
2019-03-23T11:42:31.391Z,64992.00
2019-03-23T11:43:31.389Z,65184.00
2019-03-23T11:44:31.389Z,63200.00
2019-03-23T11:45:31.387Z,65888.00
2019-03-23T11:46:31.385Z,63008.00
2019-03-23T11:47:31.386Z,65600.00
2019-03-23T11:48:31.383Z,66816.00
2019-03-23T11:49:31.387Z,68256.00
2019-03-23T11:50:31.428Z,64000.00
2019-03-23T11:51:31.377Z,65088.00
2019-03-23T11:52:31.380Z,68000.00
2019-03-23T11:53:31.382Z,66272.00
2019-03-23T11:54:31.374Z,64992.00
2019-03-23T11:55:31.375Z,61216.00
2019-03-23T11:56:31.373Z,59904.00
2019-03-23T11:57:31.373Z,59872.00
2019-03-23T11:58:31.376Z,60864.00
2019-03-23T11:59:31.369Z,62720.00
2019-03-23T12:00:31.369Z,56320.00
2019-03-23T12:01:31.368Z,52128.00
2019-03-23T12:02:31.373Z,57248.00
2019-03-23T12:03:31.366Z,59616.00
2019-03-23T12:04:31.369Z,61920.00
2019-03-23T12:05:31.397Z,59328.00
2019-03-23T12:06:31.368Z,58048.00
2019-03-23T12:07:31.364Z,57312.00
2019-03-23T12:08:31.361Z,60448.00
2019-03-23T12:09:31.358Z,63488.00
2019-03-23T12:10:31.359Z,63552.00
2019-03-23T12:11:31.364Z,65312.00
2019-03-23T12:12:31.356Z,66080.00
2019-03-23T12:13:31.357Z,63904.00
2019-03-23T12:14:31.355Z,59648.00
2019-03-23T12:15:31.358Z,57824.00
2019-03-23T12:16:31.352Z,60128.00
2019-03-23T12:17:31.351Z,61536.00
2019-03-23T12:18:31.348Z,56256.00
2019-03-23T12:19:31.345Z,56320.00
2019-03-23T12:20:31.347Z,58176.00
2019-03-23T12:21:31.345Z,59040.00
2019-03-23T12:22:31.354Z,56224.00
2019-03-23T12:23:31.345Z,51840.00
2019-03-23T12:24:31.337Z,45568.00